createdAt,value
2019-05-19T00:04:57.945Z,62.74
2019-05-19T00:09:58.067Z,62.71
2019-05-19T00:14:58.180Z,62.67
2019-05-19T00:19:58.200Z,62.0
2019-05-19T00:24:58.595Z,62.21
2019-05-19T00:29:58.623Z,62.73
2019-05-19T00:34:58.662Z,62.87
2019-05-19T00:39:58.930Z,63.11
2019-05-19T00:44:59.146Z,62.74
2019-05-19T00:49:59.429Z,63.34
2019-05-19T00:55:05.707Z,62.5
2019-05-19T01:00:05.947Z,63.63
2019-05-19T01:05:05.982Z,62.36
2019-05-19T01:10:06.176Z,62.06
2019-05-19T01:15:06.183Z,62.5
2019-05-19T01:20:06.218Z,62.18
2019-05-19T01:25:06.328Z,61.08
2019-05-19T01:30:06.363Z,61.83
2019-05-19T01:35:06.631Z,61.53
2019-05-19T01:40:06.584Z,62.25
2019-05-19T01:45:06.626Z,62.0
2019-05-19T01:50:18.808Z,62.04
2019-05-19T01:55:13.083Z,61.93
2019-05-19T02:00:13.104Z,62.35
2019-05-19T02:05:13.141Z,62.22
2019-05-19T02:10:13.256Z,62.03
2019-05-19T02:15:13.292Z,61.62
2019-05-19T02:20:13.407Z,62.05
2019-05-19T02:25:13.491Z,61.8
2019-05-19T02:30:13.610Z,62.83
2019-05-19T02:35:13.799Z,62.9
2019-05-19T02:40:13.791Z,61.76
2019-05-19T02:45:20.153Z,61.01
2019-05-19T02:50:20.175Z,62.06
2019-05-19T02:55:20.888Z,61.91
2019-05-19T03:00:20.929Z,62.7
2019-05-19T03:05:21.044Z,61.72
2019-05-19T03:10:21.302Z,63.72
2019-05-19T03:15:21.087Z,63.19
2019-05-19T03:20:21.236Z,61.82
2019-05-19T03:25:21.284Z,64.25
2019-05-19T03:30:21.326Z,63.93
2019-05-19T03:35:21.374Z,64.32
2019-05-19T03:40:27.714Z,64.22
2019-05-19T03:45:27.753Z,64.09
2019-05-19T03:50:27.900Z,63.49
2019-05-19T03:55:27.976Z,64.64
2019-05-19T04:00:28.163Z,64.76
2019-05-19T04:05:28.530Z,64.69
2019-05-19T04:10:28.503Z,65.61
2019-05-19T04:15:28.623Z,66.27
2019-05-19T04:20:28.819Z,65.77
2019-05-19T04:25:28.858Z,66.27
2019-05-19T04:30:28.900Z,67.28
2019-05-19T04:35:35.257Z,67.95
2019-05-19T04:40:35.356Z,66.61
2019-05-19T04:45:35.371Z,67.15
2019-05-19T04:50:35.415Z,67.38
2019-05-19T04:55:35.533Z,67.08
2019-05-19T05:00:35.551Z,66.6
2019-05-19T05:05:35.619Z,66.78
2019-05-19T05:10:35.815Z,67.29
2019-05-19T05:15:35.747Z,67.18
2019-05-19T05:20:35.863Z,66.6
2019-05-19T05:25:35.886Z,67.31
2019-05-19T05:30:42.215Z,67.73
2019-05-19T05:35:42.279Z,67.76
2019-05-19T05:40:42.294Z,67.33
2019-05-19T05:45:42.411Z,68.6
2019-05-19T05:50:42.448Z,68.66
2019-05-19T05:55:42.483Z,69.02
2019-05-19T06:00:42.612Z,68.81
2019-05-19T06:05:43.064Z,68.76
2019-05-19T06:10:43.452Z,68.98
2019-05-19T06:15:43.398Z,67.79
2019-05-19T06:20:43.530Z,67.88
2019-05-19T06:25:49.768Z,68.08
2019-05-19T06:30:50.459Z,66.96
2019-05-19T06:35:50.500Z,67.6
2019-05-19T06:40:50.746Z,68.09
2019-05-19T06:45:50.667Z,67.34
2019-05-19T06:50:51.159Z,68.11
2019-05-19T06:55:51.304Z,67.56
2019-05-19T07:00:51.389Z,66.88
2019-05-19T07:05:51.371Z,67.32
2019-05-19T07:10:51.391Z,66.98
2019-05-19T07:15:51.540Z,66.83
2019-05-19T07:20:57.808Z,66.41
2019-05-19T07:25:58.042Z,65.96
2019-05-19T07:31:07.263Z,66.28
2019-05-19T07:36:15.251Z,65.81
2019-05-19T07:41:15.436Z,66.07
2019-05-19T07:46:15.463Z,64.85
2019-05-19T07:51:15.501Z,64.73
2019-05-19T07:56:15.619Z,64.73
2019-05-19T08:01:15.858Z,64.83
2019-05-19T08:06:15.909Z,64.44
2019-05-19T08:11:15.803Z,64.26
2019-05-19T08:16:22.104Z,65.79
2019-05-19T08:21:22.220Z,64.27
2019-05-19T08:26:22.257Z,63.5
2019-05-19T08:31:22.289Z,63.81
2019-05-19T08:36:22.484Z,63.63
2019-05-19T08:41:23.124Z,62.82
2019-05-19T08:46:23.308Z,63.05
2019-05-19T08:51:23.353Z,62.16
2019-05-19T08:56:23.397Z,61.26
2019-05-19T09:01:24.091Z,61.08
2019-05-19T09:06:23.986Z,59.5
2019-05-19T09:11:30.283Z,59.93
2019-05-19T09:16:30.287Z,61.78
2019-05-19T09:21:30.564Z,59.99
2019-05-19T09:26:30.535Z,59.41
2019-05-19T09:31:31.539Z,58.79
2019-05-19T09:36:31.971Z,58.79
2019-05-19T09:41:31.975Z,58.47
2019-05-19T09:46:32.281Z,56.64
2019-05-19T09:51:32.131Z,56.39
2019-05-19T09:56:32.552Z,56.12
2019-05-19T10:01:32.294Z,56.72
2019-05-19T10:06:38.663Z,56.38
2019-05-19T10:11:38.621Z,56.2
2019-05-19T10:16:38.822Z,54.46
2019-05-19T10:21:39.583Z,55.35
2019-05-19T10:26:39.723Z,54.26
2019-05-19T10:31:40.339Z,55.06
2019-05-19T10:36:41.020Z,54.82
2019-05-19T10:41:41.057Z,53.28
2019-05-19T10:46:41.755Z,52.67
2019-05-19T10:51:41.886Z,53.46
2019-05-19T10:56:41.958Z,52.9
2019-05-19T11:01:48.183Z,52.08
2019-05-19T11:06:48.261Z,53.82
2019-05-19T11:11:48.281Z,53.53
2019-05-19T11:16:48.417Z,52.88
2019-05-19T11:21:48.450Z,53.09
2019-05-19T11:26:48.560Z,51.28
2019-05-19T11:31:48.596Z,50.36
2019-05-19T11:36:48.717Z,50.27
2019-05-19T11:41:48.832Z,51.73
2019-05-19T11:46:48.800Z,51.62
2019-05-19T11:51:48.916Z,49.17
2019-05-19T11:56:55.236Z,48.15
2019-05-19T12:01:55.272Z,48.09
2019-05-19T12:06:55.699Z,47.68
2019-05-19T12:11:55.679Z,49.44
2019-05-19T12:16:55.906Z,50.02
2019-05-19T12:21:56.580Z,49.28
2019-05-19T12:26:56.776Z,47.14
2019-05-19T12:31:56.812Z,47.12
2019-05-19T12:36:56.888Z,48.02
2019-05-19T12:41:56.972Z,47.71
2019-05-19T12:46:57.351Z,48.23
2019-05-19T12:52:05.707Z,48.55
2019-05-19T12:57:05.747Z,49.21
2019-05-19T13:02:05.784Z,46.38
2019-05-19T13:07:05.918Z,46.48
2019-05-19T13:12:05.956Z,45.57
2019-05-19T13:17:06.069Z,46.9
2019-05-19T13:22:06.105Z,46.68
2019-05-19T13:27:06.144Z,47.41
2019-05-19T13:32:06.331Z,45.65
2019-05-19T13:37:06.348Z,45.82
2019-05-19T13:42:06.383Z,45.57
2019-05-19T13:47:12.716Z,45.4
2019-05-19T13:52:12.835Z,43.83
2019-05-19T13:57:13.722Z,45.41
2019-05-19T14:02:13.745Z,45.3
2019-05-19T14:07:13.893Z,46.74
2019-05-19T14:12:13.930Z,45.73
2019-05-19T14:17:14.113Z,45.6
2019-05-19T14:22:14.062Z,45.76
2019-05-19T14:27:30.639Z,45.34
2019-05-19T14:32:14.212Z,45.0
2019-05-19T14:37:16.948Z,45.21
2019-05-19T14:42:25.217Z,45.51
2019-05-19T14:47:25.590Z,45.12
2019-05-19T14:52:26.669Z,46.37
2019-05-19T14:57:26.745Z,45.97
2019-05-19T15:02:26.928Z,46.07
2019-05-19T15:07:26.912Z,44.24
2019-05-19T15:12:26.952Z,44.51
2019-05-19T15:17:28.217Z,44.94
2019-05-19T15:22:28.691Z,45.41
2019-05-19T15:27:28.881Z,45.24
2019-05-19T15:32:29.060Z,44.84
2019-05-19T15:37:33.536Z,44.9
2019-05-19T15:42:33.373Z,45.05
2019-05-19T15:47:33.426Z,44.24
2019-05-19T15:52:33.470Z,44.33
2019-05-19T15:57:33.871Z,43.55
2019-05-19T16:02:33.955Z,44.37
2019-05-19T16:07:34.007Z,44.8
2019-05-19T16:12:34.045Z,44.46
2019-05-19T16:17:34.385Z,44.57
2019-05-19T16:22:34.372Z,44.02
2019-05-19T16:27:34.388Z,45.13
2019-05-19T16:32:40.755Z,45.27
2019-05-19T16:37:40.744Z,46.09
2019-05-19T16:42:40.919Z,46.24
2019-05-19T16:47:41.682Z,46.09
2019-05-19T16:52:41.447Z,46.87
2019-05-19T16:57:41.391Z,46.69
2019-05-19T17:02:43.153Z,46.68
2019-05-19T17:07:43.526Z,47.19
2019-05-19T17:12:43.530Z,47.04
2019-05-19T17:17:43.967Z,46.9
2019-05-19T17:22:43.747Z,47.8
2019-05-19T17:27:50.003Z,48.85
2019-05-19T17:32:51.002Z,49.78
2019-05-19T17:37:51.398Z,49.87
2019-05-19T17:42:51.423Z,50.61
2019-05-19T17:47:57.640Z,49.85
2019-05-19T17:52:51.675Z,50.6
2019-05-19T17:57:51.860Z,50.85
2019-05-19T18:02:52.051Z,52.51
2019-05-19T18:07:52.409Z,52.29
2019-05-19T18:12:52.337Z,52.2
2019-05-19T18:17:53.391Z,52.83
2019-05-19T18:22:59.747Z,52.0
2019-05-19T18:27:59.783Z,52.08
2019-05-19T18:32:59.871Z,52.68
2019-05-19T18:37:59.908Z,52.57
2019-05-19T18:43:00.172Z,52.86
2019-05-19T18:48:01.168Z,53.05
2019-05-19T18:53:01.424Z,53.71
2019-05-19T18:58:01.474Z,54.37
2019-05-19T19:03:01.814Z,54.49
2019-05-19T19:08:02.008Z,53.96
2019-05-19T19:13:02.224Z,54.09
2019-05-19T19:18:08.301Z,54.35
2019-05-19T19:23:08.538Z,54.5
2019-05-19T19:28:08.590Z,54.31
2019-05-19T19:33:08.509Z,54.45
2019-05-19T19:38:08.546Z,55.37
2019-05-19T19:43:08.676Z,55.01
2019-05-19T19:48:08.667Z,55.37
2019-05-19T19:53:08.856Z,55.92
2019-05-19T19:58:08.840Z,56.12
2019-05-19T20:03:08.929Z,56.06
2019-05-19T20:08:09.288Z,56.43
2019-05-19T20:13:15.600Z,56.92
2019-05-19T20:18:15.635Z,57.08
2019-05-19T20:23:15.672Z,57.0
2019-05-19T20:28:15.793Z,57.22
2019-05-19T20:33:15.863Z,56.95
2019-05-19T20:38:15.904Z,57.28
2019-05-19T20:43:16.166Z,57.48
2019-05-19T20:48:16.353Z,57.76
2019-05-19T20:53:16.329Z,57.39
2019-05-19T20:58:16.123Z,56.51
2019-05-19T21:03:16.211Z,57.24
2019-05-19T21:08:22.497Z,58.98
2019-05-19T21:13:22.522Z,58.62
2019-05-19T21:18:22.705Z,58.14
2019-05-19T21:23:23.485Z,59.25
2019-05-19T21:28:23.598Z,58.08
2019-05-19T21:33:23.614Z,58.59
2019-05-19T21:38:23.730Z,59.11
2019-05-19T21:43:24.340Z,60.18
2019-05-19T21:48:24.807Z,61.23
2019-05-19T21:53:25.090Z,61.36
2019-05-19T21:58:25.521Z,60.95
2019-05-19T22:03:31.608Z,59.88
2019-05-19T22:08:31.832Z,62.01
2019-05-19T22:13:31.612Z,63.06
2019-05-19T22:18:32.046Z,66.19
2019-05-19T22:23:31.967Z,66.07
2019-05-19T22:28:32.087Z,65.46
2019-05-19T22:33:32.126Z,67.04
2019-05-19T22:38:32.208Z,67.63
2019-05-19T22:43:32.244Z,67.79
2019-05-19T22:48:32.263Z,68.92
2019-05-19T22:53:33.052Z,69.19
2019-05-19T22:58:41.782Z,70.28
2019-05-19T23:03:38.872Z,70.6
2019-05-19T23:08:39.107Z,70.13
2019-05-19T23:13:39.161Z,70.27
2019-05-19T23:18:38.963Z,70.39
2019-05-19T23:23:39.149Z,69.63
2019-05-19T23:28:39.136Z,69.57
2019-05-19T23:33:39.580Z,72.58
2019-05-19T23:38:39.346Z,72.45
2019-05-19T23:43:39.356Z,73.07
2019-05-19T23:48:39.345Z,73.95
2019-05-19T23:53:45.825Z,73.42
2019-05-19T23:58:45.726Z,73.16
